sensor_id;sensor_type;location;lat;lon;timestamp;pressure;altitude;pressure_sealevel;temperature;humidity
37066;BME280;22981;43.080;25.550;2023-05-09T01:16:54;100029.41;;;13.51;77.45
37066;BME280;22981;43.080;25.550;2023-05-09T01:19:49;100030.67;;;13.48;77.47
37066;BME280;22981;43.080;25.550;2023-05-09T01:22:42;100038.16;;;13.46;77.59
37066;BME280;22981;43.080;25.550;2023-05-09T01:25:19;100032.78;;;13.46;77.66
37066;BME280;22981;43.080;25.550;2023-05-09T01:28:13;100038.45;;;13.47;77.62
37066;BME280;22981;43.080;25.550;2023-05-09T01:30:43;100036.81;;;13.46;77.59
37066;BME280;22981;43.080;25.550;2023-05-09T01:33:15;100030.00;;;13.44;77.51
37066;BME280;22981;43.080;25.550;2023-05-09T01:35:45;100039.12;;;13.43;77.61
37066;BME280;22981;43.080;25.550;2023-05-09T01:38:16;100032.11;;;13.42;77.74
37066;BME280;22981;43.080;25.550;2023-05-09T05:31:31;100186.98;;;11.87;77.37
37066;BME280;22981;43.080;25.550;2023-05-09T05:34:02;100193.47;;;11.82;77.29
37066;BME280;22981;43.080;25.550;2023-05-09T05:40:00;100195.14;;;11.83;77.21
37066;BME280;22981;43.080;25.550;2023-05-09T05:42:33;100191.49;;;11.80;76.91
37066;BME280;22981;43.080;25.550;2023-05-09T05:45:10;100197.71;;;11.74;76.80
37066;BME280;22981;43.080;25.550;2023-05-09T05:47:45;100202.55;;;11.68;76.78
37066;BME280;22981;43.080;25.550;2023-05-09T05:50:17;100202.55;;;11.68;76.92
37066;BME280;22981;43.080;25.550;2023-05-09T05:52:51;100201.21;;;11.68;76.78
37066;BME280;22981;43.080;25.550;2023-05-09T05:55:21;100202.14;;;11.64;76.77
37066;BME280;22981;43.080;25.550;2023-05-09T05:57:53;100203.40;;;11.62;76.81
37066;BME280;22981;43.080;25.550;2023-05-09T06:00:22;100205.78;;;11.61;76.77
37066;BME280;22981;43.080;25.550;2023-05-09T06:03:04;100211.14;;;11.61;76.78
37066;BME280;22981;43.080;25.550;2023-05-09T06:05:34;100212.97;;;11.60;76.66
37066;BME280;22981;43.080;25.550;2023-05-09T06:20:33;100218.36;;;11.53;76.79
37066;BME280;22981;43.080;25.550;2023-05-09T06:23:13;100213.09;;;11.49;76.65
37066;BME280;22981;43.080;25.550;2023-05-09T06:29:16;100220.51;;;11.47;76.60
37066;BME280;22981;43.080;25.550;2023-05-09T06:35:03;100214.95;;;11.42;76.60
37066;BME280;22981;43.080;25.550;2023-05-09T06:37:33;100219.41;;;11.39;76.47
37066;BME280;22981;43.080;25.550;2023-05-09T06:40:03;100224.25;;;11.40;76.67
37066;BME280;22981;43.080;25.550;2023-05-09T06:42:34;100219.27;;;11.43;76.74
37066;BME280;22981;43.080;25.550;2023-05-09T06:45:05;100219.09;;;11.45;76.70
37066;BME280;22981;43.080;25.550;2023-05-09T06:47:34;100220.42;;;11.45;76.53
37066;BME280;22981;43.080;25.550;2023-05-09T06:50:04;100223.19;;;11.47;76.39
37066;BME280;22981;43.080;25.550;2023-05-09T06:52:34;100219.91;;;11.45;76.38
37066;BME280;22981;43.080;25.550;2023-05-09T06:55:03;100212.16;;;11.46;76.54
37066;BME280;22981;43.080;25.550;2023-05-09T06:57:32;100212.06;;;11.50;76.45
37066;BME280;22981;43.080;25.550;2023-05-09T07:00:00;100207.33;;;11.52;76.37
37066;BME280;22981;43.080;25.550;2023-05-09T07:02:28;100212.78;;;11.55;76.47
37066;BME280;22981;43.080;25.550;2023-05-09T07:04:55;100213.19;;;11.59;76.52
37066;BME280;22981;43.080;25.550;2023-05-09T07:07:23;100213.49;;;11.60;76.47
37066;BME280;22981;43.080;25.550;2023-05-09T07:09:50;100214.83;;;11.60;76.53
37066;BME280;22981;43.080;25.550;2023-05-09T07:12:18;100217.52;;;11.60;76.59
37066;BME280;22981;43.080;25.550;2023-05-09T07:14:45;100212.67;;;11.59;76.55
37066;BME280;22981;43.080;25.550;2023-05-09T07:17:13;100211.03;;;11.58;76.47
37066;BME280;22981;43.080;25.550;2023-05-09T07:19:40;100215.35;;;11.59;76.40
37066;BME280;22981;43.080;25.550;2023-05-09T07:22:09;100218.55;;;11.59;76.26
37066;BME280;22981;43.080;25.550;2023-05-09T07:24:38;100221.23;;;11.59;76.21
37066;BME280;22981;43.080;25.550;2023-05-09T07:27:06;100228.77;;;11.59;76.39
37066;BME280;22981;43.080;25.550;2023-05-09T07:29:33;100228.36;;;11.62;76.34
37066;BME280;22981;43.080;25.550;2023-05-09T07:32:01;100220.61;;;11.63;76.24
37066;BME280;22981;43.080;25.550;2023-05-09T07:34:29;100219.69;;;11.67;76.35
37066;BME280;22981;43.080;25.550;2023-05-09T07:36:56;100221.33;;;11.68;76.15
37066;BME280;22981;43.080;25.550;2023-05-09T07:39:24;100218.95;;;11.69;76.01
37066;BME280;22981;43.080;25.550;2023-05-09T07:41:52;100229.48;;;11.70;75.97
37066;BME280;22981;43.080;25.550;2023-05-09T07:44:19;100225.98;;;11.70;75.88
37066;BME280;22981;43.080;25.550;2023-05-09T07:46:47;100221.44;;;11.70;75.90
37066;BME280;22981;43.080;25.550;2023-05-09T07:49:15;100221.96;;;11.70;75.85
37066;BME280;22981;43.080;25.550;2023-05-09T07:51:42;100232.25;;;11.73;75.77
37066;BME280;22981;43.080;25.550;2023-05-09T07:54:10;100226.39;;;11.73;75.69
37066;BME280;22981;43.080;25.550;2023-05-09T07:56:37;100232.58;;;11.74;75.48
37066;BME280;22981;43.080;25.550;2023-05-09T07:59:05;100226.06;;;11.72;75.45
37066;BME280;22981;43.080;25.550;2023-05-09T08:01:32;100230.61;;;11.72;75.45
37066;BME280;22981;43.080;25.550;2023-05-09T08:04:00;100229.27;;;11.72;75.55
37066;BME280;22981;43.080;25.550;2023-05-09T08:06:27;100228.66;;;11.70;75.59
37066;BME280;22981;43.080;25.550;2023-05-09T08:08:55;100232.69;;;11.70;75.48
37066;BME280;22981;43.080;25.550;2023-05-09T08:11:22;100227.63;;;11.71;75.61
37066;BME280;22981;43.080;25.550;2023-05-09T08:13:50;100233.70;;;11.69;75.59
37066;BME280;22981;43.080;25.550;2023-05-09T08:16:18;100231.75;;;11.67;75.62
37066;BME280;22981;43.080;25.550;2023-05-09T08:18:46;100237.34;;;11.65;75.68
37066;BME280;22981;43.080;25.550;2023-05-09T08:21:13;100234.32;;;11.64;75.74
37066;BME280;22981;43.080;25.550;2023-05-09T08:23:41;100233.62;;;11.66;75.80
37066;BME280;22981;43.080;25.550;2023-05-09T08:26:09;100235.89;;;11.69;75.79
37066;BME280;22981;43.080;25.550;2023-05-09T08:28:36;100242.19;;;11.66;75.71
37066;BME280;22981;43.080;25.550;2023-05-09T08:31:04;100235.14;;;11.65;75.75
37066;BME280;22981;43.080;25.550;2023-05-09T08:33:31;100235.56;;;11.68;75.74
37066;BME280;22981;43.080;25.550;2023-05-09T08:35:59;100229.27;;;11.72;75.69
37066;BME280;22981;43.080;25.550;2023-05-09T08:38:27;100235.86;;;11.76;75.79
37066;BME280;22981;43.080;25.550;2023-05-09T08:41:01;100238.44;;;11.80;75.94
37066;BME280;22981;43.080;25.550;2023-05-09T08:43:29;100233.63;;;11.86;75.87
37066;BME280;22981;43.080;25.550;2023-05-09T08:46:00;100236.09;;;11.88;75.65
37066;BME280;22981;43.080;25.550;2023-05-09T08:48:27;100236.51;;;11.91;75.71
37066;BME280;22981;43.080;25.550;2023-05-09T08:50:57;100236.70;;;11.96;75.77
37066;BME280;22981;43.080;25.550;2023-05-09T08:53:25;100242.66;;;11.98;75.71
37066;BME280;22981;43.080;25.550;2023-05-09T08:55:52;100245.45;;;12.01;75.68
37066;BME280;22981;43.080;25.550;2023-05-09T08:58:21;100249.38;;;12.05;75.61
37066;BME280;22981;43.080;25.550;2023-05-09T09:00:48;100246.80;;;12.08;75.54
37066;BME280;22981;43.080;25.550;2023-05-09T09:03:16;100243.15;;;12.11;75.53
37066;BME280;22981;43.080;25.550;2023-05-09T09:05:44;100241.92;;;12.14;75.44
37066;BME280;22981;43.080;25.550;2023-05-09T09:08:14;100242.44;;;12.13;75.36
37066;BME280;22981;43.080;25.550;2023-05-09T09:10:42;100240.28;;;12.13;75.21
37066;BME280;22981;43.080;25.550;2023-05-09T09:13:13;100236.55;;;12.14;75.02
37066;BME280;22981;43.080;25.550;2023-05-09T09:15:43;100236.55;;;12.14;75.00
37066;BME280;22981;43.080;25.550;2023-05-09T09:18:17;100236.14;;;12.17;75.13
37066;BME280;22981;43.080;25.550;2023-05-09T09:20:50;100240.05;;;12.21;75.28
37066;BME280;22981;43.080;25.550;2023-05-09T09:23:22;100239.08;;;12.24;75.26
37066;BME280;22981;43.080;25.550;2023-05-09T09:26:02;100244.26;;;12.26;75.10
37066;BME280;22981;43.080;25.550;2023-05-09T09:28:30;100244.97;;;12.24;74.97
37066;BME280;22981;43.080;25.550;2023-05-09T09:30:58;100242.81;;;12.23;75.01
37066;BME280;22981;43.080;25.550;2023-05-09T09:33:27;100249.82;;;12.24;74.97
37066;BME280;22981;43.080;25.550;2023-05-09T09:35:55;100249.70;;;12.28;74.87
37066;BME280;22981;43.080;25.550;2023-05-09T09:38:24;100241.76;;;12.31;74.86
37066;BME280;22981;43.080;25.550;2023-05-09T09:40:54;100241.23;;;12.32;74.87
37066;BME280;22981;43.080;25.550;2023-05-09T09:43:29;100241.86;;;12.34;74.76
37066;BME280;22981;43.080;25.550;2023-05-09T09:46:05;100245.97;;;12.36;74.67
37066;BME280;22981;43.080;25.550;2023-05-09T09:48:32;100251.15;;;12.38;74.55
37066;BME280;22981;43.080;25.550;2023-05-09T09:51:09;100245.67;;;12.35;74.42
37066;BME280;22981;43.080;25.550;2023-05-09T09:53:44;100245.89;;;12.34;74.49
37066;BME280;22981;43.080;25.550;2023-05-09T09:56:12;100246.61;;;12.32;74.50
37066;BME280;22981;43.080;25.550;2023-05-09T09:58:40;100241.76;;;12.31;74.52
37066;BME280;22981;43.080;25.550;2023-05-09T10:01:09;100243.51;;;12.35;74.56
37066;BME280;22981;43.080;25.550;2023-05-09T10:03:42;100239.55;;;12.37;74.65
37066;BME280;22981;43.080;25.550;2023-05-09T10:06:13;100248.23;;;12.39;74.75
37066;BME280;22981;43.080;25.550;2023-05-09T10:08:41;100250.92;;;12.39;74.63
37066;BME280;22981;43.080;25.550;2023-05-09T10:11:09;100245.55;;;12.39;74.47
37066;BME280;22981;43.080;25.550;2023-05-09T10:13:37;100251.75;;;12.40;74.54
37066;BME280;22981;43.080;25.550;2023-05-09T10:16:05;100249.66;;;12.42;74.66
37066;BME280;22981;43.080;25.550;2023-05-09T10:18:35;100248.84;;;12.41;74.67
37066;BME280;22981;43.080;25.550;2023-05-09T10:21:05;100247.49;;;12.41;74.67
37066;BME280;22981;43.080;25.550;2023-05-09T10:23:36;100249.88;;;12.40;74.72
37066;BME280;22981;43.080;25.550;2023-05-09T10:26:15;100255.03;;;12.42;74.84
37066;BME280;22981;43.080;25.550;2023-05-09T10:28:39;100252.67;;;12.43;74.98
37066;BME280;22981;43.080;25.550;2023-05-09T10:31:22;100250.06;;;12.45;75.00
37066;BME280;22981;43.080;25.550;2023-05-09T10:33:50;100259.56;;;12.48;75.07
37066;BME280;22981;43.080;25.550;2023-05-09T10:36:19;100256.36;;;12.48;75.10
37066;BME280;22981;43.080;25.550;2023-05-09T10:38:48;100251.28;;;12.49;75.21
37066;BME280;22981;43.080;25.550;2023-05-09T10:41:16;100250.05;;;12.52;75.28
37066;BME280;22981;43.080;25.550;2023-05-09T10:43:48;100247.66;;;12.53;75.35
37066;BME280;22981;43.080;25.550;2023-05-09T10:46:16;100250.87;;;12.52;75.41
37066;BME280;22981;43.080;25.550;2023-05-09T10:48:44;100243.34;;;12.52;75.52
37066;BME280;22981;43.080;25.550;2023-05-09T10:51:15;100250.57;;;12.51;75.68
37066;BME280;22981;43.080;25.550;2023-05-09T10:53:44;100250.47;;;12.49;75.80
37066;BME280;22981;43.080;25.550;2023-05-09T10:56:30;100255.54;;;12.48;75.88
37066;BME280;22981;43.080;25.550;2023-05-09T10:58:58;100246.03;;;12.45;75.73
37066;BME280;22981;43.080;25.550;2023-05-09T11:01:36;100244.21;;;12.39;75.56
37066;BME280;22981;43.080;25.550;2023-05-09T11:04:15;100244.92;;;12.37;75.85
37066;BME280;22981;43.080;25.550;2023-05-09T11:06:48;100243.69;;;12.40;75.93
37066;BME280;22981;43.080;25.550;2023-05-09T11:09:22;100243.57;;;12.44;75.87
37066;BME280;22981;43.080;25.550;2023-05-09T11:14:48;100243.81;;;12.58;75.49
37066;BME280;22981;43.080;25.550;2023-05-09T11:19:58;100245.54;;;12.68;75.20
37066;BME280;22981;43.080;25.550;2023-05-09T11:22:28;100241.28;;;12.70;75.01
37066;BME280;22981;43.080;25.550;2023-05-09T11:25:11;100244.27;;;12.71;75.00
37066;BME280;22981;43.080;25.550;2023-05-09T11:27:44;100238.47;;;12.74;74.92
37066;BME280;22981;43.080;25.550;2023-05-09T11:30:15;100238.05;;;12.77;74.76
37066;BME280;22981;43.080;25.550;2023-05-09T11:32:45;100236.78;;;12.79;74.67
37066;BME280;22981;43.080;25.550;2023-05-09T11:35:18;100240.91;;;12.82;74.67
37066;BME280;22981;43.080;25.550;2023-05-09T11:40:18;100245.07;;;12.78;74.78
37066;BME280;22981;43.080;25.550;2023-05-09T11:42:49;100244.25;;;12.77;74.99
37066;BME280;22981;43.080;25.550;2023-05-09T11:45:18;100242.91;;;12.77;75.01
37066;BME280;22981;43.080;25.550;2023-05-09T11:47:47;100240.52;;;12.78;74.99
37066;BME280;22981;43.080;25.550;2023-05-09T11:50:16;100246.94;;;12.77;74.97
37066;BME280;22981;43.080;25.550;2023-05-09T11:52:45;100244.77;;;12.77;75.24
37066;BME280;22981;43.080;25.550;2023-05-09T11:55:15;100244.44;;;12.76;75.38
37066;BME280;22981;43.080;25.550;2023-05-09T11:57:48;100247.13;;;12.76;75.51
37066;BME280;22981;43.080;25.550;2023-05-09T12:00:17;100249.92;;;12.78;75.70
37066;BME280;22981;43.080;25.550;2023-05-09T12:02:44;100251.27;;;12.78;75.79
37066;BME280;22981;43.080;25.550;2023-05-09T12:05:14;100240.22;;;12.77;75.87
37066;BME280;22981;43.080;25.550;2023-05-09T12:07:43;100247.23;;;12.78;75.94
37066;BME280;22981;43.080;25.550;2023-05-09T12:10:12;100242.28;;;12.75;75.80
37066;BME280;22981;43.080;25.550;2023-05-09T12:12:45;100241.16;;;12.74;75.83
37066;BME280;22981;43.080;25.550;2023-05-09T12:15:13;100239.59;;;12.75;75.93
37066;BME280;22981;43.080;25.550;2023-05-09T12:17:43;100237.72;;;12.76;76.01
37066;BME280;22981;43.080;25.550;2023-05-09T12:20:12;100235.14;;;12.78;76.06
37066;BME280;22981;43.080;25.550;2023-05-09T12:22:41;100238.23;;;12.82;76.19
37066;BME280;22981;43.080;25.550;2023-05-09T12:25:10;100234.91;;;12.80;76.15
37066;BME280;22981;43.080;25.550;2023-05-09T12:27:38;100229.17;;;12.76;76.07
37066;BME280;22981;43.080;25.550;2023-05-09T12:30:07;100226.26;;;12.78;75.97
37066;BME280;22981;43.080;25.550;2023-05-09T12:32:40;100217.08;;;12.76;75.89
37066;BME280;22981;43.080;25.550;2023-05-09T12:35:09;100217.97;;;12.79;75.97
37066;BME280;22981;43.080;25.550;2023-05-09T12:37:37;100216.80;;;12.85;76.04
37066;BME280;22981;43.080;25.550;2023-05-09T12:40:12;100219.36;;;12.89;76.12
37066;BME280;22981;43.080;25.550;2023-05-09T12:42:42;100213.04;;;12.92;76.27
37066;BME280;22981;43.080;25.550;2023-05-09T12:45:10;100207.53;;;12.96;76.02
37066;BME280;22981;43.080;25.550;2023-05-09T12:47:38;100199.77;;;12.97;75.64
37066;BME280;22981;43.080;25.550;2023-05-09T12:50:08;100204.13;;;12.98;75.36
37066;BME280;22981;43.080;25.550;2023-05-09T12:52:39;100200.91;;;12.99;75.33
37066;BME280;22981;43.080;25.550;2023-05-09T12:55:09;100200.09;;;12.98;75.44
37066;BME280;22981;43.080;25.550;2023-05-09T12:57:38;100202.68;;;12.96;75.50
37066;BME280;22981;43.080;25.550;2023-05-09T13:00:08;100202.62;;;12.93;75.69
37066;BME280;22981;43.080;25.550;2023-05-09T13:02:39;100203.44;;;12.94;76.03
37066;BME280;22981;43.080;25.550;2023-05-09T13:05:11;100195.67;;;12.95;75.97
37066;BME280;22981;43.080;25.550;2023-05-09T13:07:42;100196.78;;;12.96;75.85
37066;BME280;22981;43.080;25.550;2023-05-09T13:10:16;100197.93;;;12.98;75.89
37066;BME280;22981;43.080;25.550;2023-05-09T13:12:48;100189.94;;;13.00;75.94
37066;BME280;22981;43.080;25.550;2023-05-09T13:15:17;100186.30;;;13.04;75.92
37066;BME280;22981;43.080;25.550;2023-05-09T13:17:47;100189.91;;;13.07;75.89
37066;BME280;22981;43.080;25.550;2023-05-09T13:20:15;100190.20;;;13.08;75.77
37066;BME280;22981;43.080;25.550;2023-05-09T13:22:43;100186.55;;;13.12;75.81
37066;BME280;22981;43.080;25.550;2023-05-09T13:25:11;100190.66;;;13.14;75.87
37066;BME280;22981;43.080;25.550;2023-05-09T13:27:38;100186.95;;;13.15;75.73
37066;BME280;22981;43.080;25.550;2023-05-09T13:30:06;100186.72;;;13.17;75.64
37066;BME280;22981;43.080;25.550;2023-05-09T13:32:34;100186.81;;;13.19;75.63
37066;BME280;22981;43.080;25.550;2023-05-09T13:35:02;100183.27;;;13.19;75.59
37066;BME280;22981;43.080;25.550;2023-05-09T13:37:31;100183.27;;;13.19;75.53
37066;BME280;22981;43.080;25.550;2023-05-09T13:39:59;100184.62;;;13.19;75.56
37066;BME280;22981;43.080;25.550;2023-05-09T13:42:27;100185.47;;;13.19;75.63
37066;BME280;22981;43.080;25.550;2023-05-09T13:44:54;100185.23;;;13.21;75.63
37066;BME280;22981;43.080;25.550;2023-05-09T13:47:22;100184.71;;;13.21;75.48
37066;BME280;22981;43.080;25.550;2023-05-09T13:49:49;100174.48;;;13.21;75.45
37066;BME280;22981;43.080;25.550;2023-05-09T13:52:18;100175.53;;;13.20;75.46
37066;BME280;22981;43.080;25.550;2023-05-09T13:54:46;100174.09;;;13.17;75.58
37066;BME280;22981;43.080;25.550;2023-05-09T13:57:14;100177.83;;;13.16;75.83
37066;BME280;22981;43.080;25.550;2023-05-09T13:59:41;100178.66;;;13.17;76.04
37066;BME280;22981;43.080;25.550;2023-05-09T14:02:09;100137.33;;;12.86;76.09
37066;BME280;22981;43.080;25.550;2023-05-09T14:04:37;100186.84;;;13.13;76.29
37066;BME280;22981;43.080;25.550;2023-05-09T14:07:05;100187.08;;;13.11;76.50
37066;BME280;22981;43.080;25.550;2023-05-09T14:09:32;100183.48;;;13.08;76.62
37066;BME280;22981;43.080;25.550;2023-05-09T14:12:02;100180.49;;;13.07;76.64
37066;BME280;22981;43.080;25.550;2023-05-09T14:14:29;100181.73;;;13.04;76.81
37066;BME280;22981;43.080;25.550;2023-05-09T14:16:57;100182.27;;;13.04;76.92
37066;BME280;22981;43.080;25.550;2023-05-09T14:19:27;100184.95;;;13.04;76.70
37066;BME280;22981;43.080;25.550;2023-05-09T14:21:55;100185.08;;;13.00;76.37
37066;BME280;22981;43.080;25.550;2023-05-09T14:24:23;100187.61;;;12.95;76.14
37066;BME280;22981;43.080;25.550;2023-05-09T14:26:51;100188.66;;;12.94;76.18
37066;BME280;22981;43.080;25.550;2023-05-09T14:29:18;100181.02;;;12.91;76.23
37066;BME280;22981;43.080;25.550;2023-05-09T14:31:46;100187.21;;;12.91;76.22
37066;BME280;22981;43.080;25.550;2023-05-09T14:34:14;100188.27;;;12.90;76.18
37066;BME280;22981;43.080;25.550;2023-05-09T14:36:41;100190.33;;;12.88;76.09
37066;BME280;22981;43.080;25.550;2023-05-09T14:39:09;100183.31;;;12.87;76.13
37066;BME280;22981;43.080;25.550;2023-05-09T14:41:37;100183.73;;;12.84;76.24
37066;BME280;22981;43.080;25.550;2023-05-09T14:44:04;100185.53;;;12.81;76.42
37066;BME280;22981;43.080;25.550;2023-05-09T14:46:32;100186.55;;;12.80;76.67
37066;BME280;22981;43.080;25.550;2023-05-09T14:49:00;100182.52;;;12.80;76.88
37066;BME280;22981;43.080;25.550;2023-05-09T14:51:30;100181.41;;;12.78;77.01
37066;BME280;22981;43.080;25.550;2023-05-09T14:53:59;100179.96;;;12.76;76.90
37066;BME280;22981;43.080;25.550;2023-05-09T14:56:27;100181.62;;;12.77;76.77
37066;BME280;22981;43.080;25.550;2023-05-09T14:58:55;100178.42;;;12.77;76.87
37066;BME280;22981;43.080;25.550;2023-05-09T15:01:22;100182.98;;;12.77;76.82
37066;BME280;22981;43.080;25.550;2023-05-09T15:03:50;100171.73;;;12.71;76.83
37066;BME280;22981;43.080;25.550;2023-05-09T15:06:17;100174.42;;;12.71;76.96
37066;BME280;22981;43.080;25.550;2023-05-09T15:08:45;100176.52;;;12.69;76.77
37066;BME280;22981;43.080;25.550;2023-05-09T15:11:12;100176.41;;;12.66;76.56
37066;BME280;22981;43.080;25.550;2023-05-09T15:13:40;100171.98;;;12.63;76.75
37066;BME280;22981;43.080;25.550;2023-05-09T15:16:08;100164.38;;;12.60;77.05
37066;BME280;22981;43.080;25.550;2023-05-09T15:18:35;100166.24;;;12.59;77.32
37066;BME280;22981;43.080;25.550;2023-05-09T15:21:04;100164.97;;;12.62;77.37
37066;BME280;22981;43.080;25.550;2023-05-09T15:23:32;100161.56;;;12.64;77.17
37066;BME280;22981;43.080;25.550;2023-05-09T15:25:59;100162.68;;;12.65;77.05
37066;BME280;22981;43.080;25.550;2023-05-09T15:28:27;100155.87;;;12.63;77.08
37066;BME280;22981;43.080;25.550;2023-05-09T15:30:55;100156.62;;;12.61;77.13
37066;BME280;22981;43.080;25.550;2023-05-09T15:33:24;100150.13;;;12.59;77.12
37066;BME280;22981;43.080;25.550;2023-05-09T15:35:55;100154.35;;;12.58;76.98
37066;BME280;22981;43.080;25.550;2023-05-09T15:38:22;100149.73;;;12.56;77.07
37066;BME280;22981;43.080;25.550;2023-05-09T15:40:49;100146.81;;;12.57;77.25
37066;BME280;22981;43.080;25.550;2023-05-09T15:43:17;100149.20;;;12.56;77.53
37066;BME280;22981;43.080;25.550;2023-05-09T15:45:45;100143.61;;;12.58;77.73
37066;BME280;22981;43.080;25.550;2023-05-09T15:48:13;100137.19;;;12.59;77.89
37066;BME280;22981;43.080;25.550;2023-05-09T15:50:42;100132.34;;;12.58;78.15
37066;BME280;22981;43.080;25.550;2023-05-09T15:53:10;100132.97;;;12.60;78.38
37066;BME280;22981;43.080;25.550;2023-05-09T15:55:40;100140.80;;;12.62;78.42
37066;BME280;22981;43.080;25.550;2023-05-09T15:58:08;100133.55;;;12.62;78.47
37066;BME280;22981;43.080;25.550;2023-05-09T16:00:36;100139.55;;;12.64;78.55
37066;BME280;22981;43.080;25.550;2023-05-09T16:03:05;100135.52;;;12.64;78.45
37066;BME280;22981;43.080;25.550;2023-05-09T16:05:33;100142.77;;;12.64;78.33
37066;BME280;22981;43.080;25.550;2023-05-09T16:08:00;100147.61;;;12.64;78.35
37066;BME280;22981;43.080;25.550;2023-05-09T16:10:28;100148.63;;;12.63;78.54
37066;BME280;22981;43.080;25.550;2023-05-09T16:12:55;100146.98;;;12.62;78.70
37066;BME280;22981;43.080;25.550;2023-05-09T16:15:23;100148.56;;;12.61;78.75
37066;BME280;22981;43.080;25.550;2023-05-09T16:17:50;100149.27;;;12.59;78.90
37066;BME280;22981;43.080;25.550;2023-05-09T16:20:18;100150.95;;;12.60;78.95
37066;BME280;22981;43.080;25.550;2023-05-09T16:22:46;100155.70;;;12.58;78.93
37066;BME280;22981;43.080;25.550;2023-05-09T16:25:15;100151.59;;;12.55;78.85
37066;BME280;22981;43.080;25.550;2023-05-09T16:27:43;100154.77;;;12.54;78.91
37066;BME280;22981;43.080;25.550;2023-05-09T16:30:11;100154.28;;;12.55;79.03
37066;BME280;22981;43.080;25.550;2023-05-09T16:32:43;100161.00;;;12.55;79.07
37066;BME280;22981;43.080;25.550;2023-05-09T16:35:10;100163.36;;;12.54;79.22
37066;BME280;22981;43.080;25.550;2023-05-09T16:37:38;100169.77;;;12.53;79.32
37066;BME280;22981;43.080;25.550;2023-05-09T16:40:06;100174.55;;;12.51;79.47
37066;BME280;22981;43.080;25.550;2023-05-09T16:42:34;100168.26;;;12.48;79.61
37066;BME280;22981;43.080;25.550;2023-05-09T16:45:01;100176.96;;;12.43;79.89
37066;BME280;22981;43.080;25.550;2023-05-09T16:47:29;100181.80;;;12.44;80.05
37066;BME280;22981;43.080;25.550;2023-05-09T16:49:57;100183.15;;;12.44;80.16
37066;BME280;22981;43.080;25.550;2023-05-09T16:52:25;100177.78;;;12.44;80.24
37066;BME280;22981;43.080;25.550;2023-05-09T16:54:53;100180.47;;;12.44;80.34
37066;BME280;22981;43.080;25.550;2023-05-09T16:57:20;100181.28;;;12.44;80.39
37066;BME280;22981;43.080;25.550;2023-05-09T16:59:48;100178.83;;;12.43;80.49
37066;BME280;22981;43.080;25.550;2023-05-09T17:02:15;100182.52;;;12.42;80.55
37066;BME280;22981;43.080;25.550;2023-05-09T17:04:43;100178.00;;;12.42;80.56
37066;BME280;22981;43.080;25.550;2023-05-09T17:07:11;100178.20;;;12.41;80.53
37066;BME280;22981;43.080;25.550;2023-05-09T17:09:39;100174.39;;;12.39;80.55
37066;BME280;22981;43.080;25.550;2023-05-09T17:12:08;100174.62;;;12.38;80.64
37066;BME280;22981;43.080;25.550;2023-05-09T17:14:37;100172.13;;;12.36;80.58
37066;BME280;22981;43.080;25.550;2023-05-09T17:17:05;100176.58;;;12.33;80.65
37066;BME280;22981;43.080;25.550;2023-05-09T17:19:34;100177.42;;;12.34;80.81
37066;BME280;22981;43.080;25.550;2023-05-09T17:22:02;100176.28;;;12.32;80.94
37066;BME280;22981;43.080;25.550;2023-05-09T17:24:31;100181.35;;;12.31;81.05
37066;BME280;22981;43.080;25.550;2023-05-09T17:26:59;100180.23;;;12.30;81.15
37066;BME280;22981;43.080;25.550;2023-05-09T17:29:27;100182.91;;;12.30;81.19
37066;BME280;22981;43.080;25.550;2023-05-09T17:31:56;100182.91;;;12.30;81.31
37066;BME280;22981;43.080;25.550;2023-05-09T17:34:27;100175.87;;;12.28;81.40
37066;BME280;22981;43.080;25.550;2023-05-09T17:36:55;100173.52;;;12.30;81.42
37066;BME280;22981;43.080;25.550;2023-05-09T17:39:23;100179.61;;;12.27;81.39
37066;BME280;22981;43.080;25.550;2023-05-09T17:41:51;100181.77;;;12.28;81.41
37066;BME280;22981;43.080;25.550;2023-05-09T17:44:19;100184.38;;;12.25;81.45
37066;BME280;22981;43.080;25.550;2023-05-09T17:46:48;100180.02;;;12.24;81.49
37066;BME280;22981;43.080;25.550;2023-05-09T17:49:17;100182.41;;;12.23;81.38
37066;BME280;22981;43.080;25.550;2023-05-09T17:51:45;100183.67;;;12.21;81.39
37066;BME280;22981;43.080;25.550;2023-05-09T17:54:17;100183.27;;;12.17;81.64
37066;BME280;22981;43.080;25.550;2023-05-09T17:56:46;100188.02;;;12.15;81.87
37066;BME280;22981;43.080;25.550;2023-05-09T17:59:17;100193.83;;;12.12;82.13
37066;BME280;22981;43.080;25.550;2023-05-09T18:01:46;100195.80;;;12.08;82.40
37066;BME280;22981;43.080;25.550;2023-05-09T18:04:14;100197.14;;;12.08;82.61
37066;BME280;22981;43.080;25.550;2023-05-09T18:06:42;100194.54;;;12.10;82.66
37066;BME280;22981;43.080;25.550;2023-05-09T18:09:13;100195.66;;;12.12;82.59
37066;BME280;22981;43.080;25.550;2023-05-09T18:11:44;100197.34;;;12.06;82.63
37066;BME280;22981;43.080;25.550;2023-05-09T18:14:15;100196.00;;;12.06;82.67
37066;BME280;22981;43.080;25.550;2023-05-09T18:16:44;100199.91;;;12.10;82.55
37066;BME280;22981;43.080;25.550;2023-05-09T18:19:16;100208.59;;;12.12;82.44
37066;BME280;22981;43.080;25.550;2023-05-09T18:21:45;100204.86;;;12.13;82.41
37066;BME280;22981;43.080;25.550;2023-05-09T18:24:14;100212.39;;;12.14;82.43
37066;BME280;22981;43.080;25.550;2023-05-09T18:26:44;100206.50;;;12.14;82.56
37066;BME280;22981;43.080;25.550;2023-05-09T18:29:13;100210.53;;;12.14;82.60